createdAt,value
2019-03-10T00:07:26.607Z,2.10
2019-03-10T00:17:31.423Z,2.70
2019-03-10T00:27:36.340Z,0.87
2019-03-10T00:37:41.450Z,0.83
2019-03-10T00:48:05.243Z,1.90
2019-03-10T00:58:10.203Z,1.37
2019-03-10T01:08:15.168Z,1.30
2019-03-10T01:18:20.729Z,3.55
2019-03-10T01:28:25.607Z,2.07
2019-03-10T01:38:30.468Z,6.93
2019-03-10T01:48:35.336Z,7.07
2019-03-10T01:58:40.167Z,8.37
2019-03-10T02:08:45.123Z,3.15
2019-03-10T02:18:49.967Z,5.13
2019-03-10T02:28:54.833Z,4.40
2019-03-10T02:38:59.823Z,5.23
2019-03-10T02:49:05.131Z,6.25
2019-03-10T02:59:09.989Z,4.43
2019-03-10T03:09:14.865Z,2.90
2019-03-10T03:19:19.722Z,3.95
2019-03-10T03:29:24.663Z,3.47
2019-03-10T03:39:31.914Z,4.73
2019-03-10T03:49:36.753Z,6.97
2019-03-10T03:59:41.617Z,2.93
2019-03-10T04:09:46.452Z,3.33
2019-03-10T04:19:51.421Z,4.37
2019-03-10T04:29:56.272Z,3.00
2019-03-10T04:40:01.124Z,7.87
2019-03-10T04:50:07.779Z,7.73
2019-03-10T05:00:12.844Z,5.57
2019-03-10T05:10:18.729Z,5.00
2019-03-10T05:20:23.608Z,3.73
2019-03-10T05:30:28.498Z,11.80
2019-03-10T05:40:33.377Z,6.67
2019-03-10T05:50:38.242Z,6.83
2019-03-10T06:00:43.455Z,6.33
2019-03-10T06:10:48.591Z,7.30
2019-03-10T06:20:54.456Z,4.40
2019-03-10T06:30:59.328Z,4.20
2019-03-10T06:41:05.224Z,4.33
2019-03-10T06:51:10.157Z,3.60
2019-03-10T07:01:15.079Z,6.53
2019-03-10T07:11:19.978Z,5.65
2019-03-10T07:21:50.362Z,3.95
2019-03-10T07:32:00.298Z,3.20
2019-03-10T07:42:12.478Z,8.37
2019-03-10T07:52:24.903Z,4.33
2019-03-10T08:02:38.443Z,4.47
2019-03-10T08:12:47.751Z,5.45
2019-03-10T08:23:00.412Z,3.92
2019-03-10T08:33:22.008Z,5.35
2019-03-10T08:53:34.150Z,2.85
2019-03-10T09:03:43.623Z,4.87
2019-03-10T09:14:06.385Z,4.08
2019-03-10T09:24:18.846Z,12.47
2019-03-10T09:34:25.755Z,4.95
2019-03-10T09:44:48.323Z,10.30
2019-03-10T09:54:54.789Z,4.27
2019-03-10T10:05:01.430Z,2.95
2019-03-10T10:15:11.688Z,5.47
2019-03-10T10:25:21.636Z,6.95
2019-03-10T10:35:37.381Z,4.17
2019-03-10T10:45:46.949Z,5.67
2019-03-10T10:56:10.019Z,3.83
2019-03-10T11:06:19.563Z,6.37
2019-03-10T11:16:25.827Z,22.42
2019-03-10T11:26:48.772Z,32.90
2019-03-10T11:37:10.507Z,16.53
2019-03-10T11:47:33.546Z,7.40
2019-03-10T11:57:42.163Z,9.77
2019-03-10T12:08:06.216Z,7.63
2019-03-10T12:18:12.129Z,8.95
2019-03-10T12:28:17.647Z,8.58
2019-03-10T12:38:22.813Z,7.30
2019-03-10T12:48:27.671Z,19.50
2019-03-10T12:58:32.508Z,8.60
2019-03-10T13:08:37.464Z,9.43
2019-03-10T13:18:42.576Z,6.33
2019-03-10T13:28:47.443Z,8.40
2019-03-10T13:38:52.296Z,6.53
2019-03-10T13:48:57.328Z,7.73
2019-03-10T13:59:02.157Z,10.50
2019-03-10T14:09:10.001Z,8.57
2019-03-10T14:19:15.083Z,12.10
2019-03-10T14:29:20.029Z,13.35
2019-03-10T14:39:25.004Z,16.73
2019-03-10T14:49:29.884Z,37.30
2019-03-10T14:59:35.015Z,16.47
2019-03-10T15:09:40.113Z,26.27
2019-03-10T15:19:45.178Z,19.50
2019-03-10T15:29:51.188Z,24.97
2019-03-10T15:39:56.380Z,33.20
2019-03-10T15:50:01.472Z,21.20
2019-03-10T16:00:14.581Z,26.87
2019-03-10T16:10:19.741Z,19.37
2019-03-10T16:20:29.459Z,25.93
2019-03-10T16:30:35.244Z,27.93
2019-03-10T16:40:40.541Z,25.77
2019-03-10T16:50:45.628Z,21.53
2019-03-10T17:00:51.641Z,21.63
2019-03-10T17:10:56.712Z,29.40
2019-03-10T17:21:01.833Z,29.50
2019-03-10T17:31:07.079Z,36.30
2019-03-10T17:41:12.160Z,36.23
2019-03-10T17:51:17.244Z,45.73
2019-03-10T18:01:22.247Z,28.57
2019-03-10T18:11:27.619Z,32.20
2019-03-10T18:21:32.938Z,26.20
2019-03-10T18:31:38.240Z,35.70
2019-03-10T18:41:43.586Z,37.23
2019-03-10T18:51:48.804Z,35.47
2019-03-10T19:01:54.472Z,46.93
2019-03-10T19:11:59.680Z,66.57
2019-03-10T19:22:06.565Z,51.20
2019-03-10T19:32:12.211Z,46.98
2019-03-10T19:42:18.944Z,48.97
2019-03-10T19:52:25.078Z,69.60
2019-03-10T20:02:30.215Z,52.93
2019-03-10T20:12:35.337Z,54.40
2019-03-10T20:22:41.430Z,48.97
2019-03-10T20:32:46.494Z,45.60
2019-03-10T20:42:51.570Z,123.97
2019-03-10T20:52:56.442Z,50.97
2019-03-10T21:03:01.507Z,34.43
2019-03-10T21:13:07.157Z,53.33
2019-03-10T21:23:13.473Z,13.72
2019-03-10T21:33:18.443Z,8.97
2019-03-10T21:43:23.494Z,7.93
2019-03-10T21:53:28.426Z,8.40
2019-03-10T22:03:33.277Z,8.70
2019-03-10T22:13:46.322Z,10.43
2019-03-10T22:23:44.698Z,12.30
2019-03-10T22:33:49.530Z,5.83
2019-03-10T22:43:54.392Z,9.10
2019-03-10T22:53:59.281Z,6.40
2019-03-10T23:04:04.928Z,6.03
2019-03-10T23:14:09.782Z,2.87
2019-03-10T23:24:14.641Z,3.10
2019-03-10T23:34:19.504Z,3.67
2019-03-10T23:44:24.351Z,5.97
2019-03-10T23:54:29.213Z,3.17
